sensor_id;sensor_type;location;lat;lon;timestamp;P1;durP1;ratioP1;P2;durP2;ratioP2
19032;SDS011;9649;51.042;13.804;2023-03-13T00:01:29;12.33;;;3.27;;
19032;SDS011;9649;51.042;13.804;2023-03-13T00:06:33;16.53;;;3.37;;
19032;SDS011;9649;51.042;13.804;2023-03-13T00:11:37;16.63;;;3.23;;
19032;SDS011;9649;51.042;13.804;2023-03-13T00:16:44;16.67;;;3.53;;
19032;SDS011;9649;51.042;13.804;2023-03-13T00:21:47;8.97;;;2.70;;
19032;SDS011;9649;51.042;13.804;2023-03-13T00:26:51;15.77;;;3.10;;
19032;SDS011;9649;51.042;13.804;2023-03-13T00:31:57;18.07;;;3.67;;
19032;SDS011;9649;51.042;13.804;2023-03-13T00:37:00;20.17;;;4.00;;
19032;SDS011;9649;51.042;13.804;2023-03-13T00:42:03;12.00;;;3.03;;
19032;SDS011;9649;51.042;13.804;2023-03-13T00:47:08;15.67;;;2.97;;
19032;SDS011;9649;51.042;13.804;2023-03-13T00:52:13;16.40;;;3.20;;
19032;SDS011;9649;51.042;13.804;2023-03-13T00:57:19;15.30;;;3.20;;
19032;SDS011;9649;51.042;13.804;2023-03-13T01:02:26;16.47;;;3.63;;
19032;SDS011;9649;51.042;13.804;2023-03-13T01:07:32;16.70;;;3.47;;
19032;SDS011;9649;51.042;13.804;2023-03-13T01:12:36;17.13;;;3.80;;
19032;SDS011;9649;51.042;13.804;2023-03-13T01:17:43;18.97;;;3.23;;
19032;SDS011;9649;51.042;13.804;2023-03-13T01:22:46;15.10;;;3.40;;
19032;SDS011;9649;51.042;13.804;2023-03-13T01:27:49;13.77;;;3.20;;
19032;SDS011;9649;51.042;13.804;2023-03-13T01:32:53;18.17;;;3.60;;
19032;SDS011;9649;51.042;13.804;2023-03-13T01:37:56;18.03;;;3.30;;
19032;SDS011;9649;51.042;13.804;2023-03-13T01:42:59;18.87;;;4.17;;
19032;SDS011;9649;51.042;13.804;2023-03-13T01:48:04;15.10;;;3.63;;
19032;SDS011;9649;51.042;13.804;2023-03-13T01:53:07;16.90;;;3.53;;
19032;SDS011;9649;51.042;13.804;2023-03-13T01:58:10;14.60;;;3.23;;
19032;SDS011;9649;51.042;13.804;2023-03-13T02:03:15;15.90;;;3.33;;
19032;SDS011;9649;51.042;13.804;2023-03-13T02:08:20;13.00;;;3.10;;
19032;SDS011;9649;51.042;13.804;2023-03-13T02:13:26;15.63;;;3.00;;
19032;SDS011;9649;51.042;13.804;2023-03-13T02:18:32;17.83;;;3.53;;
19032;SDS011;9649;51.042;13.804;2023-03-13T02:23:35;18.70;;;3.37;;
19032;SDS011;9649;51.042;13.804;2023-03-13T02:28:44;13.17;;;3.60;;
19032;SDS011;9649;51.042;13.804;2023-03-13T02:33:47;16.03;;;2.70;;
19032;SDS011;9649;51.042;13.804;2023-03-13T02:38:50;17.30;;;3.23;;
19032;SDS011;9649;51.042;13.804;2023-03-13T02:43:58;20.50;;;3.27;;
19032;SDS011;9649;51.042;13.804;2023-03-13T02:49:06;21.20;;;3.13;;
19032;SDS011;9649;51.042;13.804;2023-03-13T02:54:22;17.97;;;2.90;;
19032;SDS011;9649;51.042;13.804;2023-03-13T02:59:30;13.40;;;2.90;;
19032;SDS011;9649;51.042;13.804;2023-03-13T03:04:34;19.03;;;3.10;;
19032;SDS011;9649;51.042;13.804;2023-03-13T03:09:42;17.23;;;2.70;;
19032;SDS011;9649;51.042;13.804;2023-03-13T03:14:46;15.53;;;2.93;;
19032;SDS011;9649;51.042;13.804;2023-03-13T03:19:49;20.17;;;3.90;;
19032;SDS011;9649;51.042;13.804;2023-03-13T03:24:52;15.57;;;3.57;;
19032;SDS011;9649;51.042;13.804;2023-03-13T03:29:56;16.53;;;2.60;;
19032;SDS011;9649;51.042;13.804;2023-03-13T03:35:02;21.77;;;3.30;;
19032;SDS011;9649;51.042;13.804;2023-03-13T03:40:05;20.13;;;3.37;;
19032;SDS011;9649;51.042;13.804;2023-03-13T03:45:11;15.67;;;2.60;;
19032;SDS011;9649;51.042;13.804;2023-03-13T03:50:14;19.63;;;2.70;;
19032;SDS011;9649;51.042;13.804;2023-03-13T03:55:17;16.93;;;2.90;;
19032;SDS011;9649;51.042;13.804;2023-03-13T04:00:22;18.07;;;3.13;;
19032;SDS011;9649;51.042;13.804;2023-03-13T04:05:25;12.43;;;2.87;;
19032;SDS011;9649;51.042;13.804;2023-03-13T04:10:28;17.63;;;2.83;;
19032;SDS011;9649;51.042;13.804;2023-03-13T04:15:33;16.00;;;2.83;;
19032;SDS011;9649;51.042;13.804;2023-03-13T04:20:39;18.17;;;3.20;;
19032;SDS011;9649;51.042;13.804;2023-03-13T04:25:54;17.50;;;3.70;;
19032;SDS011;9649;51.042;13.804;2023-03-13T04:31:06;21.00;;;4.43;;
19032;SDS011;9649;51.042;13.804;2023-03-13T04:36:13;19.67;;;8.97;;
19032;SDS011;9649;51.042;13.804;2023-03-13T04:41:24;16.30;;;5.67;;
19032;SDS011;9649;51.042;13.804;2023-03-13T04:46:38;18.67;;;4.27;;
19032;SDS011;9649;51.042;13.804;2023-03-13T04:52:12;18.07;;;3.30;;
19032;SDS011;9649;51.042;13.804;2023-03-13T04:57:49;19.37;;;3.03;;
19032;SDS011;9649;51.042;13.804;2023-03-13T05:03:27;17.80;;;3.40;;
19032;SDS011;9649;51.042;13.804;2023-03-13T05:08:49;16.00;;;3.00;;
19032;SDS011;9649;51.042;13.804;2023-03-13T05:14:17;18.47;;;3.37;;
19032;SDS011;9649;51.042;13.804;2023-03-13T05:19:25;17.10;;;3.23;;
19032;SDS011;9649;51.042;13.804;2023-03-13T05:24:37;16.13;;;3.00;;
19032;SDS011;9649;51.042;13.804;2023-03-13T05:29:42;15.93;;;3.47;;
19032;SDS011;9649;51.042;13.804;2023-03-13T05:34:46;17.37;;;3.43;;
19032;SDS011;9649;51.042;13.804;2023-03-13T05:39:48;15.07;;;3.30;;
19032;SDS011;9649;51.042;13.804;2023-03-13T05:44:51;14.30;;;3.40;;
19032;SDS011;9649;51.042;13.804;2023-03-13T05:49:55;21.00;;;4.57;;
19032;SDS011;9649;51.042;13.804;2023-03-13T05:54:58;14.43;;;3.70;;
19032;SDS011;9649;51.042;13.804;2023-03-13T06:00:01;19.83;;;4.53;;
19032;SDS011;9649;51.042;13.804;2023-03-13T06:05:06;19.17;;;4.20;;
19032;SDS011;9649;51.042;13.804;2023-03-13T06:10:10;20.40;;;4.93;;
19032;SDS011;9649;51.042;13.804;2023-03-13T06:15:13;15.50;;;5.00;;
19032;SDS011;9649;51.042;13.804;2023-03-13T06:20:17;13.63;;;5.77;;
19032;SDS011;9649;51.042;13.804;2023-03-13T06:25:20;21.80;;;6.73;;
19032;SDS011;9649;51.042;13.804;2023-03-13T06:30:22;20.83;;;7.00;;
19032;SDS011;9649;51.042;13.804;2023-03-13T06:35:26;20.00;;;7.50;;
19032;SDS011;9649;51.042;13.804;2023-03-13T06:40:29;17.17;;;7.63;;
19032;SDS011;9649;51.042;13.804;2023-03-13T06:45:33;17.17;;;7.10;;
19032;SDS011;9649;51.042;13.804;2023-03-13T06:50:38;22.27;;;7.10;;
19032;SDS011;9649;51.042;13.804;2023-03-13T06:55:41;17.53;;;7.37;;
19032;SDS011;9649;51.042;13.804;2023-03-13T07:00:43;17.10;;;6.23;;
19032;SDS011;9649;51.042;13.804;2023-03-13T07:05:48;16.67;;;5.90;;
19032;SDS011;9649;51.042;13.804;2023-03-13T07:10:57;16.60;;;5.00;;
19032;SDS011;9649;51.042;13.804;2023-03-13T07:16:01;20.30;;;5.07;;
19032;SDS011;9649;51.042;13.804;2023-03-13T07:21:08;18.90;;;5.57;;
19032;SDS011;9649;51.042;13.804;2023-03-13T07:26:13;15.03;;;4.80;;
19032;SDS011;9649;51.042;13.804;2023-03-13T07:31:17;12.17;;;5.07;;
19032;SDS011;9649;51.042;13.804;2023-03-13T07:36:23;9.83;;;3.77;;
19032;SDS011;9649;51.042;13.804;2023-03-13T07:41:26;12.90;;;5.27;;
19032;SDS011;9649;51.042;13.804;2023-03-13T07:46:29;15.20;;;4.87;;
19032;SDS011;9649;51.042;13.804;2023-03-13T07:51:33;10.23;;;5.17;;
19032;SDS011;9649;51.042;13.804;2023-03-13T07:56:44;14.67;;;6.27;;
19032;SDS011;9649;51.042;13.804;2023-03-13T08:01:47;17.23;;;5.93;;
19032;SDS011;9649;51.042;13.804;2023-03-13T08:06:51;12.23;;;5.40;;
19032;SDS011;9649;51.042;13.804;2023-03-13T08:11:54;12.93;;;5.67;;
19032;SDS011;9649;51.042;13.804;2023-03-13T08:16:57;12.03;;;5.07;;
19032;SDS011;9649;51.042;13.804;2023-03-13T08:22:01;11.27;;;5.17;;
19032;SDS011;9649;51.042;13.804;2023-03-13T08:27:04;11.30;;;5.40;;
19032;SDS011;9649;51.042;13.804;2023-03-13T08:32:07;9.37;;;4.83;;
19032;SDS011;9649;51.042;13.804;2023-03-13T08:37:14;8.40;;;3.70;;
19032;SDS011;9649;51.042;13.804;2023-03-13T08:42:17;10.90;;;4.43;;
19032;SDS011;9649;51.042;13.804;2023-03-13T08:47:20;10.27;;;4.60;;
19032;SDS011;9649;51.042;13.804;2023-03-13T08:52:24;11.10;;;4.27;;
19032;SDS011;9649;51.042;13.804;2023-03-13T08:57:27;16.13;;;4.23;;
19032;SDS011;9649;51.042;13.804;2023-03-13T09:02:30;9.00;;;3.83;;
19032;SDS011;9649;51.042;13.804;2023-03-13T09:07:34;11.13;;;3.97;;
19032;SDS011;9649;51.042;13.804;2023-03-13T09:12:37;11.60;;;3.37;;
19032;SDS011;9649;51.042;13.804;2023-03-13T09:17:41;12.20;;;3.10;;
19032;SDS011;9649;51.042;13.804;2023-03-13T09:22:45;6.60;;;2.33;;
19032;SDS011;9649;51.042;13.804;2023-03-13T09:27:47;6.07;;;2.40;;
19032;SDS011;9649;51.042;13.804;2023-03-13T09:32:50;5.03;;;1.90;;
19032;SDS011;9649;51.042;13.804;2023-03-13T09:37:54;4.83;;;2.00;;
19032;SDS011;9649;51.042;13.804;2023-03-13T09:42:58;5.30;;;1.50;;
19032;SDS011;9649;51.042;13.804;2023-03-13T09:48:01;2.87;;;1.17;;
19032;SDS011;9649;51.042;13.804;2023-03-13T09:53:12;6.03;;;1.70;;
19032;SDS011;9649;51.042;13.804;2023-03-13T09:58:18;3.17;;;1.23;;
19032;SDS011;9649;51.042;13.804;2023-03-13T10:03:24;4.73;;;1.67;;
19032;SDS011;9649;51.042;13.804;2023-03-13T10:08:32;5.13;;;1.30;;
19032;SDS011;9649;51.042;13.804;2023-03-13T10:13:36;2.60;;;1.20;;
19032;SDS011;9649;51.042;13.804;2023-03-13T10:18:43;3.50;;;1.30;;
19032;SDS011;9649;51.042;13.804;2023-03-13T10:23:50;3.73;;;1.40;;
19032;SDS011;9649;51.042;13.804;2023-03-13T10:29:00;2.37;;;1.43;;
19032;SDS011;9649;51.042;13.804;2023-03-13T10:34:15;2.70;;;1.50;;
19032;SDS011;9649;51.042;13.804;2023-03-13T10:39:20;4.90;;;2.30;;
19032;SDS011;9649;51.042;13.804;2023-03-13T10:44:29;4.60;;;2.60;;
19032;SDS011;9649;51.042;13.804;2023-03-13T10:49:33;6.53;;;2.40;;
19032;SDS011;9649;51.042;13.804;2023-03-13T10:54:50;2.80;;;2.07;;
19032;SDS011;9649;51.042;13.804;2023-03-13T11:00:02;4.35;;;2.22;;
19032;SDS011;9649;51.042;13.804;2023-03-13T11:05:32;4.85;;;2.33;;
19032;SDS011;9649;51.042;13.804;2023-03-13T11:10:41;3.33;;;2.30;;
19032;SDS011;9649;51.042;13.804;2023-03-13T11:15:56;5.85;;;3.40;;
19032;SDS011;9649;51.042;13.804;2023-03-13T11:21:02;7.28;;;3.55;;
19032;SDS011;9649;51.042;13.804;2023-03-13T11:26:24;2.35;;;1.45;;
19032;SDS011;9649;51.042;13.804;2023-03-13T11:31:36;1.15;;;1.05;;
19032;SDS011;9649;51.042;13.804;2023-03-13T11:36:50;2.63;;;1.30;;
19032;SDS011;9649;51.042;13.804;2023-03-13T11:42:15;2.08;;;1.05;;
19032;SDS011;9649;51.042;13.804;2023-03-13T11:47:46;1.30;;;0.90;;
19032;SDS011;9649;51.042;13.804;2023-03-13T11:53:08;0.90;;;0.60;;
19032;SDS011;9649;51.042;13.804;2023-03-13T11:58:28;2.30;;;0.88;;
19032;SDS011;9649;51.042;13.804;2023-03-13T12:03:41;1.92;;;0.68;;
19032;SDS011;9649;51.042;13.804;2023-03-13T12:09:09;3.20;;;0.70;;
19032;SDS011;9649;51.042;13.804;2023-03-13T12:14:25;4.22;;;1.08;;
19032;SDS011;9649;51.042;13.804;2023-03-13T12:19:51;2.35;;;0.90;;
19032;SDS011;9649;51.042;13.804;2023-03-13T12:25:11;0.80;;;0.70;;
19032;SDS011;9649;51.042;13.804;2023-03-13T12:30:29;3.90;;;1.13;;
19032;SDS011;9649;51.042;13.804;2023-03-13T12:35:43;1.30;;;0.70;;
19032;SDS011;9649;51.042;13.804;2023-03-13T12:40:53;2.20;;;0.70;;
19032;SDS011;9649;51.042;13.804;2023-03-13T12:51:14;1.17;;;0.75;;
19032;SDS011;9649;51.042;13.804;2023-03-13T12:56:31;1.10;;;0.60;;
19032;SDS011;9649;51.042;13.804;2023-03-13T13:01:54;1.48;;;0.80;;
19032;SDS011;9649;51.042;13.804;2023-03-13T13:07:00;1.08;;;0.80;;
19032;SDS011;9649;51.042;13.804;2023-03-13T13:12:17;0.70;;;0.60;;
19032;SDS011;9649;51.042;13.804;2023-03-13T13:17:22;0.75;;;0.75;;
19032;SDS011;9649;51.042;13.804;2023-03-13T13:22:52;0.70;;;0.70;;
19032;SDS011;9649;51.042;13.804;2023-03-13T13:27:55;3.00;;;0.77;;
19032;SDS011;9649;51.042;13.804;2023-03-13T13:33:33;2.28;;;0.90;;
19032;SDS011;9649;51.042;13.804;2023-03-13T13:38:42;1.67;;;0.70;;
19032;SDS011;9649;51.042;13.804;2023-03-13T13:43:45;2.95;;;0.98;;
19032;SDS011;9649;51.042;13.804;2023-03-13T13:54:31;1.10;;;0.77;;
19032;SDS011;9649;51.042;13.804;2023-03-13T13:59:37;1.10;;;0.73;;
19032;SDS011;9649;51.042;13.804;2023-03-13T14:04:44;1.20;;;0.90;;
19032;SDS011;9649;51.042;13.804;2023-03-13T14:10:05;0.82;;;0.80;;
19032;SDS011;9649;51.042;13.804;2023-03-13T14:15:19;2.10;;;0.80;;
19032;SDS011;9649;51.042;13.804;2023-03-13T14:20:27;3.50;;;1.05;;
19032;SDS011;9649;51.042;13.804;2023-03-13T14:25:41;1.23;;;0.80;;
19032;SDS011;9649;51.042;13.804;2023-03-13T14:30:45;1.20;;;0.70;;
19032;SDS011;9649;51.042;13.804;2023-03-13T14:35:49;2.60;;;1.00;;
19032;SDS011;9649;51.042;13.804;2023-03-13T14:40:53;1.80;;;0.82;;
19032;SDS011;9649;51.042;13.804;2023-03-13T14:45:57;1.40;;;0.90;;
19032;SDS011;9649;51.042;13.804;2023-03-13T14:51:02;1.17;;;0.80;;
19032;SDS011;9649;51.042;13.804;2023-03-13T14:56:17;1.45;;;0.88;;
19032;SDS011;9649;51.042;13.804;2023-03-13T15:01:22;1.10;;;0.70;;
19032;SDS011;9649;51.042;13.804;2023-03-13T15:06:27;2.05;;;0.90;;
19032;SDS011;9649;51.042;13.804;2023-03-13T15:11:31;2.95;;;0.88;;
19032;SDS011;9649;51.042;13.804;2023-03-13T15:16:34;3.03;;;1.00;;
19032;SDS011;9649;51.042;13.804;2023-03-13T15:21:37;3.70;;;1.10;;
19032;SDS011;9649;51.042;13.804;2023-03-13T15:26:41;2.83;;;1.00;;
19032;SDS011;9649;51.042;13.804;2023-03-13T15:31:44;4.13;;;1.23;;
19032;SDS011;9649;51.042;13.804;2023-03-13T15:36:47;3.05;;;1.10;;
19032;SDS011;9649;51.042;13.804;2023-03-13T15:41:51;1.95;;;1.10;;
19032;SDS011;9649;51.042;13.804;2023-03-13T15:46:54;1.80;;;0.90;;
19032;SDS011;9649;51.042;13.804;2023-03-13T15:51:56;1.38;;;0.90;;
19032;SDS011;9649;51.042;13.804;2023-03-13T15:57:00;2.25;;;1.13;;
19032;SDS011;9649;51.042;13.804;2023-03-13T16:02:05;1.85;;;0.90;;
19032;SDS011;9649;51.042;13.804;2023-03-13T16:07:14;3.50;;;1.15;;
19032;SDS011;9649;51.042;13.804;2023-03-13T16:12:21;2.10;;;0.88;;
19032;SDS011;9649;51.042;13.804;2023-03-13T16:17:23;1.17;;;0.88;;
19032;SDS011;9649;51.042;13.804;2023-03-13T16:22:28;2.50;;;1.40;;
19032;SDS011;9649;51.042;13.804;2023-03-13T16:27:32;1.17;;;0.85;;
19032;SDS011;9649;51.042;13.804;2023-03-13T16:32:35;1.17;;;0.88;;
19032;SDS011;9649;51.042;13.804;2023-03-13T16:37:38;1.42;;;1.10;;
19032;SDS011;9649;51.042;13.804;2023-03-13T16:42:42;2.15;;;1.27;;
19032;SDS011;9649;51.042;13.804;2023-03-13T16:47:45;3.05;;;1.13;;
19032;SDS011;9649;51.042;13.804;2023-03-13T16:52:48;1.70;;;1.05;;
19032;SDS011;9649;51.042;13.804;2023-03-13T16:57:53;1.95;;;1.52;;
19032;SDS011;9649;51.042;13.804;2023-03-13T17:02:56;4.32;;;1.42;;
19032;SDS011;9649;51.042;13.804;2023-03-13T17:07:59;3.70;;;1.50;;
19032;SDS011;9649;51.042;13.804;2023-03-13T17:13:04;3.35;;;1.60;;
19032;SDS011;9649;51.042;13.804;2023-03-13T17:18:08;4.93;;;2.17;;
19032;SDS011;9649;51.042;13.804;2023-03-13T17:23:11;3.58;;;1.90;;
19032;SDS011;9649;51.042;13.804;2023-03-13T17:28:15;7.47;;;2.60;;
19032;SDS011;9649;51.042;13.804;2023-03-13T17:33:17;6.65;;;2.88;;
19032;SDS011;9649;51.042;13.804;2023-03-13T17:38:20;5.85;;;2.13;;
19032;SDS011;9649;51.042;13.804;2023-03-13T17:43:24;6.82;;;3.22;;
19032;SDS011;9649;51.042;13.804;2023-03-13T17:48:27;7.85;;;3.60;;
19032;SDS011;9649;51.042;13.804;2023-03-13T17:53:30;7.25;;;3.50;;
19032;SDS011;9649;51.042;13.804;2023-03-13T17:58:34;10.85;;;5.00;;
19032;SDS011;9649;51.042;13.804;2023-03-13T18:03:36;3.83;;;2.58;;
19032;SDS011;9649;51.042;13.804;2023-03-13T18:08:39;4.00;;;2.28;;
19032;SDS011;9649;51.042;13.804;2023-03-13T18:13:44;6.25;;;1.70;;
19032;SDS011;9649;51.042;13.804;2023-03-13T18:18:48;3.47;;;1.55;;
19032;SDS011;9649;51.042;13.804;2023-03-13T18:23:51;3.13;;;1.88;;
19032;SDS011;9649;51.042;13.804;2023-03-13T18:28:56;7.47;;;3.55;;
19032;SDS011;9649;51.042;13.804;2023-03-13T18:34:01;5.13;;;2.50;;
19032;SDS011;9649;51.042;13.804;2023-03-13T18:39:05;3.53;;;2.15;;
19032;SDS011;9649;51.042;13.804;2023-03-13T18:44:09;3.78;;;2.08;;
19032;SDS011;9649;51.042;13.804;2023-03-13T18:49:34;4.70;;;2.40;;
19032;SDS011;9649;51.042;13.804;2023-03-13T18:55:31;3.83;;;2.30;;
19032;SDS011;9649;51.042;13.804;2023-03-13T19:42:48;6.43;;;2.55;;
19032;SDS011;9649;51.042;13.804;2023-03-13T19:48:02;5.07;;;2.10;;
19032;SDS011;9649;51.042;13.804;2023-03-13T19:53:36;2.15;;;1.52;;
19032;SDS011;9649;51.042;13.804;2023-03-13T20:05:15;4.80;;;1.90;;
19032;SDS011;9649;51.042;13.804;2023-03-13T20:10:49;5.90;;;2.55;;
19032;SDS011;9649;51.042;13.804;2023-03-13T20:16:10;4.88;;;2.35;;
19032;SDS011;9649;51.042;13.804;2023-03-13T20:21:17;4.07;;;2.50;;
19032;SDS011;9649;51.042;13.804;2023-03-13T20:26:23;2.28;;;1.40;;
19032;SDS011;9649;51.042;13.804;2023-03-13T20:31:27;2.83;;;1.53;;
19032;SDS011;9649;51.042;13.804;2023-03-13T20:36:35;1.27;;;0.97;;
19032;SDS011;9649;51.042;13.804;2023-03-13T20:41:46;1.40;;;0.97;;
19032;SDS011;9649;51.042;13.804;2023-03-13T20:46:58;2.40;;;1.30;;
19032;SDS011;9649;51.042;13.804;2023-03-13T20:52:09;1.63;;;1.10;;
19032;SDS011;9649;51.042;13.804;2023-03-13T20:57:18;1.40;;;1.30;;
19032;SDS011;9649;51.042;13.804;2023-03-13T21:02:37;1.50;;;1.30;;
19032;SDS011;9649;51.042;13.804;2023-03-13T21:08:11;2.40;;;1.27;;
19032;SDS011;9649;51.042;13.804;2023-03-13T21:13:30;1.33;;;1.13;;
19032;SDS011;9649;51.042;13.804;2023-03-13T21:18:50;2.97;;;1.20;;
19032;SDS011;9649;51.042;13.804;2023-03-13T21:30:30;1.67;;;0.90;;
19032;SDS011;9649;51.042;13.804;2023-03-13T21:35:33;4.83;;;0.80;;
19032;SDS011;9649;51.042;13.804;2023-03-13T21:40:38;1.70;;;0.93;;
19032;SDS011;9649;51.042;13.804;2023-03-13T21:45:49;1.10;;;1.00;;
19032;SDS011;9649;51.042;13.804;2023-03-13T21:50:51;1.20;;;1.10;;
19032;SDS011;9649;51.042;13.804;2023-03-13T21:55:54;3.17;;;1.03;;
19032;SDS011;9649;51.042;13.804;2023-03-13T22:00:58;1.13;;;0.90;;
19032;SDS011;9649;51.042;13.804;2023-03-13T22:06:01;2.40;;;1.10;;
19032;SDS011;9649;51.042;13.804;2023-03-13T22:11:05;2.50;;;1.00;;
19032;SDS011;9649;51.042;13.804;2023-03-13T22:16:09;1.43;;;1.07;;
19032;SDS011;9649;51.042;13.804;2023-03-13T22:21:13;1.97;;;1.10;;
19032;SDS011;9649;51.042;13.804;2023-03-13T22:26:16;1.67;;;1.00;;
19032;SDS011;9649;51.042;13.804;2023-03-13T22:31:21;0.77;;;0.77;;
19032;SDS011;9649;51.042;13.804;2023-03-13T22:36:25;1.20;;;1.07;;
19032;SDS011;9649;51.042;13.804;2023-03-13T22:41:27;1.90;;;1.17;;
19032;SDS011;9649;51.042;13.804;2023-03-13T22:46:34;2.17;;;1.43;;
19032;SDS011;9649;51.042;13.804;2023-03-13T22:51:57;1.40;;;1.27;;
19032;SDS011;9649;51.042;13.804;2023-03-13T22:57:00;6.00;;;1.60;;
19032;SDS011;9649;51.042;13.804;2023-03-13T23:02:08;1.30;;;1.20;;
19032;SDS011;9649;51.042;13.804;2023-03-13T23:07:10;2.97;;;1.37;;
19032;SDS011;9649;51.042;13.804;2023-03-13T23:12:13;2.47;;;1.30;;
19032;SDS011;9649;51.042;13.804;2023-03-13T23:17:17;1.67;;;1.20;;
19032;SDS011;9649;51.042;13.804;2023-03-13T23:22:20;2.13;;;1.60;;
19032;SDS011;9649;51.042;13.804;2023-03-13T23:27:28;2.07;;;1.20;;
19032;SDS011;9649;51.042;13.804;2023-03-13T23:32:35;2.47;;;1.30;;
19032;SDS011;9649;51.042;13.804;2023-03-13T23:37:38;1.50;;;1.10;;
19032;SDS011;9649;51.042;13.804;2023-03-13T23:42:42;1.67;;;1.13;;
19032;SDS011;9649;51.042;13.804;2023-03-13T23:47:47;1.10;;;1.00;;
19032;SDS011;9649;51.042;13.804;2023-03-13T23:52:53;1.23;;;0.90;;
19032;SDS011;9649;51.042;13.804;2023-03-13T23:57:55;3.10;;;1.33;;
